sensor_id;sensor_type;location;lat;lon;timestamp;temperature;humidity
55711;DHT22;41612;51.994;5.880;2022-08-19T00:01:36;20.50;72.30
55711;DHT22;41612;51.994;5.880;2022-08-19T00:04:04;20.50;72.70
55711;DHT22;41612;51.994;5.880;2022-08-19T00:06:30;20.40;72.80
55711;DHT22;41612;51.994;5.880;2022-08-19T00:08:57;20.40;72.70
55711;DHT22;41612;51.994;5.880;2022-08-19T00:11:23;20.40;72.80
55711;DHT22;41612;51.994;5.880;2022-08-19T00:13:50;20.40;72.80
55711;DHT22;41612;51.994;5.880;2022-08-19T00:16:17;20.30;72.80
55711;DHT22;41612;51.994;5.880;2022-08-19T00:18:47;20.40;72.80
55711;DHT22;41612;51.994;5.880;2022-08-19T00:21:13;20.30;72.90
55711;DHT22;41612;51.994;5.880;2022-08-19T00:23:40;20.30;72.90
55711;DHT22;41612;51.994;5.880;2022-08-19T00:26:06;20.30;73.00
55711;DHT22;41612;51.994;5.880;2022-08-19T00:28:33;20.30;73.00
55711;DHT22;41612;51.994;5.880;2022-08-19T00:31:04;20.20;73.00
55711;DHT22;41612;51.994;5.880;2022-08-19T00:33:31;20.20;73.10
55711;DHT22;41612;51.994;5.880;2022-08-19T00:36:05;20.20;73.10
55711;DHT22;41612;51.994;5.880;2022-08-19T00:38:32;20.20;73.10
55711;DHT22;41612;51.994;5.880;2022-08-19T00:40:58;20.20;73.20
55711;DHT22;41612;51.994;5.880;2022-08-19T00:43:25;20.20;73.30
55711;DHT22;41612;51.994;5.880;2022-08-19T00:45:52;20.20;73.50
55711;DHT22;41612;51.994;5.880;2022-08-19T00:48:18;20.20;73.50
55711;DHT22;41612;51.994;5.880;2022-08-19T00:50:45;20.10;73.50
55711;DHT22;41612;51.994;5.880;2022-08-19T00:53:14;20.10;73.50
55711;DHT22;41612;51.994;5.880;2022-08-19T00:55:42;20.10;73.50
55711;DHT22;41612;51.994;5.880;2022-08-19T00:58:29;20.10;73.50
55711;DHT22;41612;51.994;5.880;2022-08-19T01:00:55;20.10;73.50
55711;DHT22;41612;51.994;5.880;2022-08-19T01:03:21;20.00;73.60
55711;DHT22;41612;51.994;5.880;2022-08-19T01:05:49;20.00;73.60
55711;DHT22;41612;51.994;5.880;2022-08-19T01:08:17;20.00;73.60
55711;DHT22;41612;51.994;5.880;2022-08-19T01:10:49;20.00;73.60
55711;DHT22;41612;51.994;5.880;2022-08-19T01:13:17;19.90;73.70
55711;DHT22;41612;51.994;5.880;2022-08-19T01:15:51;19.90;73.70
55711;DHT22;41612;51.994;5.880;2022-08-19T01:18:18;19.90;73.70
55711;DHT22;41612;51.994;5.880;2022-08-19T01:20:45;19.80;73.80
55711;DHT22;41612;51.994;5.880;2022-08-19T01:23:12;19.80;73.70
55711;DHT22;41612;51.994;5.880;2022-08-19T01:25:47;19.80;73.80
55711;DHT22;41612;51.994;5.880;2022-08-19T01:28:24;19.80;73.80
55711;DHT22;41612;51.994;5.880;2022-08-19T01:30:53;19.70;73.80
55711;DHT22;41612;51.994;5.880;2022-08-19T01:33:20;19.70;73.80
55711;DHT22;41612;51.994;5.880;2022-08-19T01:35:46;19.70;73.80
55711;DHT22;41612;51.994;5.880;2022-08-19T01:38:25;19.70;73.80
55711;DHT22;41612;51.994;5.880;2022-08-19T01:40:52;19.70;73.80
55711;DHT22;41612;51.994;5.880;2022-08-19T01:43:19;19.70;73.90
55711;DHT22;41612;51.994;5.880;2022-08-19T01:45:45;19.60;73.80
55711;DHT22;41612;51.994;5.880;2022-08-19T01:48:12;19.70;73.70
55711;DHT22;41612;51.994;5.880;2022-08-19T01:50:37;19.70;73.70
55711;DHT22;41612;51.994;5.880;2022-08-19T01:53:05;19.70;73.50
55711;DHT22;41612;51.994;5.880;2022-08-19T01:55:33;19.70;73.40
55711;DHT22;41612;51.994;5.880;2022-08-19T01:58:02;19.70;73.40
55711;DHT22;41612;51.994;5.880;2022-08-19T02:00:33;19.70;73.30
55711;DHT22;41612;51.994;5.880;2022-08-19T02:02:59;19.70;73.30
55711;DHT22;41612;51.994;5.880;2022-08-19T02:05:26;19.70;73.20
55711;DHT22;41612;51.994;5.880;2022-08-19T02:07:57;19.70;73.10
55711;DHT22;41612;51.994;5.880;2022-08-19T02:10:24;19.80;72.90
55711;DHT22;41612;51.994;5.880;2022-08-19T02:12:50;19.80;72.70
55711;DHT22;41612;51.994;5.880;2022-08-19T02:15:17;19.90;72.60
55711;DHT22;41612;51.994;5.880;2022-08-19T02:17:45;19.90;72.40
55711;DHT22;41612;51.994;5.880;2022-08-19T02:20:12;20.00;72.20
55711;DHT22;41612;51.994;5.880;2022-08-19T02:22:39;20.00;72.10
55711;DHT22;41612;51.994;5.880;2022-08-19T02:25:07;20.00;71.90
55711;DHT22;41612;51.994;5.880;2022-08-19T02:27:33;20.00;71.90
55711;DHT22;41612;51.994;5.880;2022-08-19T02:29:59;20.00;71.80
55711;DHT22;41612;51.994;5.880;2022-08-19T02:32:26;19.90;71.90
55711;DHT22;41612;51.994;5.880;2022-08-19T02:34:52;19.90;71.90
55711;DHT22;41612;51.994;5.880;2022-08-19T02:37:18;19.80;72.00
55711;DHT22;41612;51.994;5.880;2022-08-19T02:40:03;19.80;72.10
55711;DHT22;41612;51.994;5.880;2022-08-19T02:42:29;19.70;72.20
55711;DHT22;41612;51.994;5.880;2022-08-19T02:44:55;19.70;72.20
55711;DHT22;41612;51.994;5.880;2022-08-19T02:47:21;19.70;72.30
55711;DHT22;41612;51.994;5.880;2022-08-19T02:49:47;19.70;72.30
55711;DHT22;41612;51.994;5.880;2022-08-19T02:52:15;19.60;72.30
55711;DHT22;41612;51.994;5.880;2022-08-19T02:54:41;19.60;72.30
55711;DHT22;41612;51.994;5.880;2022-08-19T02:57:06;19.60;72.40
55711;DHT22;41612;51.994;5.880;2022-08-19T02:59:34;19.50;72.50
55711;DHT22;41612;51.994;5.880;2022-08-19T03:01:59;19.50;72.50
55711;DHT22;41612;51.994;5.880;2022-08-19T03:04:25;19.40;72.70
55711;DHT22;41612;51.994;5.880;2022-08-19T03:06:51;19.40;72.80
55711;DHT22;41612;51.994;5.880;2022-08-19T03:09:19;19.40;72.70
55711;DHT22;41612;51.994;5.880;2022-08-19T03:11:45;19.30;72.70
55711;DHT22;41612;51.994;5.880;2022-08-19T03:14:12;19.30;72.90
55711;DHT22;41612;51.994;5.880;2022-08-19T03:16:45;19.30;73.00
55711;DHT22;41612;51.994;5.880;2022-08-19T03:19:12;19.20;73.00
55711;DHT22;41612;51.994;5.880;2022-08-19T03:21:38;19.20;73.30
55711;DHT22;41612;51.994;5.880;2022-08-19T03:24:06;19.20;73.30
55711;DHT22;41612;51.994;5.880;2022-08-19T03:26:33;19.20;74.00
55711;DHT22;41612;51.994;5.880;2022-08-19T03:29:03;19.10;73.90
55711;DHT22;41612;51.994;5.880;2022-08-19T03:31:29;19.10;74.00
55711;DHT22;41612;51.994;5.880;2022-08-19T03:33:56;19.10;74.10
55711;DHT22;41612;51.994;5.880;2022-08-19T03:36:25;19.00;73.90
55711;DHT22;41612;51.994;5.880;2022-08-19T03:38:53;19.00;74.30
55711;DHT22;41612;51.994;5.880;2022-08-19T03:41:32;19.00;74.40
55711;DHT22;41612;51.994;5.880;2022-08-19T03:43:58;19.00;74.40
55711;DHT22;41612;51.994;5.880;2022-08-19T03:46:29;18.90;74.40
55711;DHT22;41612;51.994;5.880;2022-08-19T03:48:57;18.90;74.30
55711;DHT22;41612;51.994;5.880;2022-08-19T03:51:29;18.90;74.20
55711;DHT22;41612;51.994;5.880;2022-08-19T03:53:58;19.00;74.20
55711;DHT22;41612;51.994;5.880;2022-08-19T03:56:25;18.90;74.10
55711;DHT22;41612;51.994;5.880;2022-08-19T03:58:52;18.90;74.00
55711;DHT22;41612;51.994;5.880;2022-08-19T04:01:23;18.90;74.20
55711;DHT22;41612;51.994;5.880;2022-08-19T04:03:49;19.00;74.10
55711;DHT22;41612;51.994;5.880;2022-08-19T04:06:16;19.00;74.10
55711;DHT22;41612;51.994;5.880;2022-08-19T04:08:44;19.10;73.90
55711;DHT22;41612;51.994;5.880;2022-08-19T04:11:13;19.10;73.80
55711;DHT22;41612;51.994;5.880;2022-08-19T04:13:40;19.10;74.00
55711;DHT22;41612;51.994;5.880;2022-08-19T04:16:07;19.00;73.90
55711;DHT22;41612;51.994;5.880;2022-08-19T04:18:36;19.00;74.00
55711;DHT22;41612;51.994;5.880;2022-08-19T04:21:03;19.00;73.90
55711;DHT22;41612;51.994;5.880;2022-08-19T04:23:29;18.90;74.00
55711;DHT22;41612;51.994;5.880;2022-08-19T04:25:55;18.90;74.00
55711;DHT22;41612;51.994;5.880;2022-08-19T04:28:24;18.80;74.80
55711;DHT22;41612;51.994;5.880;2022-08-19T04:30:52;18.80;75.00
55711;DHT22;41612;51.994;5.880;2022-08-19T04:33:20;18.80;74.70
55711;DHT22;41612;51.994;5.880;2022-08-19T04:35:48;18.80;74.60
55711;DHT22;41612;51.994;5.880;2022-08-19T04:38:16;18.70;74.50
55711;DHT22;41612;51.994;5.880;2022-08-19T04:40:50;18.70;74.40
55711;DHT22;41612;51.994;5.880;2022-08-19T04:43:37;18.70;74.30
55711;DHT22;41612;51.994;5.880;2022-08-19T04:46:11;18.70;74.30
55711;DHT22;41612;51.994;5.880;2022-08-19T04:48:38;18.70;74.40
55711;DHT22;41612;51.994;5.880;2022-08-19T04:51:11;18.70;74.40
55711;DHT22;41612;51.994;5.880;2022-08-19T04:53:39;18.70;74.40
55711;DHT22;41612;51.994;5.880;2022-08-19T04:56:12;18.60;74.40
55711;DHT22;41612;51.994;5.880;2022-08-19T04:58:49;18.60;74.30
55711;DHT22;41612;51.994;5.880;2022-08-19T05:01:26;18.70;74.20
55711;DHT22;41612;51.994;5.880;2022-08-19T05:03:54;18.70;74.40
55711;DHT22;41612;51.994;5.880;2022-08-19T05:06:22;18.70;74.40
55711;DHT22;41612;51.994;5.880;2022-08-19T05:08:48;18.70;74.40
55711;DHT22;41612;51.994;5.880;2022-08-19T05:11:22;18.60;74.50
55711;DHT22;41612;51.994;5.880;2022-08-19T05:13:53;18.70;74.40
55711;DHT22;41612;51.994;5.880;2022-08-19T05:16:21;18.70;74.40
55711;DHT22;41612;51.994;5.880;2022-08-19T05:18:47;18.70;74.40
55711;DHT22;41612;51.994;5.880;2022-08-19T05:21:32;18.70;74.60
55711;DHT22;41612;51.994;5.880;2022-08-19T05:24:17;18.70;74.70
55711;DHT22;41612;51.994;5.880;2022-08-19T05:26:46;18.70;74.60
55711;DHT22;41612;51.994;5.880;2022-08-19T05:29:17;18.70;74.50
55711;DHT22;41612;51.994;5.880;2022-08-19T05:31:45;18.80;74.60
55711;DHT22;41612;51.994;5.880;2022-08-19T05:34:11;18.80;75.00
55711;DHT22;41612;51.994;5.880;2022-08-19T05:36:40;18.90;75.20
55711;DHT22;41612;51.994;5.880;2022-08-19T05:39:13;18.90;75.20
55711;DHT22;41612;51.994;5.880;2022-08-19T05:42:00;19.00;76.70
55711;DHT22;41612;51.994;5.880;2022-08-19T05:44:35;19.00;76.50
55711;DHT22;41612;51.994;5.880;2022-08-19T05:47:04;19.00;76.40
55711;DHT22;41612;51.994;5.880;2022-08-19T05:49:32;19.10;76.00
55711;DHT22;41612;51.994;5.880;2022-08-19T05:51:58;19.10;78.00
55711;DHT22;41612;51.994;5.880;2022-08-19T05:54:25;19.20;78.10
55711;DHT22;41612;51.994;5.880;2022-08-19T05:56:52;19.10;77.90
55711;DHT22;41612;51.994;5.880;2022-08-19T05:59:39;19.20;77.70
55711;DHT22;41612;51.994;5.880;2022-08-19T06:02:06;19.30;77.60
55711;DHT22;41612;51.994;5.880;2022-08-19T06:04:33;19.30;78.20
55711;DHT22;41612;51.994;5.880;2022-08-19T06:06:58;19.30;78.80
55711;DHT22;41612;51.994;5.880;2022-08-19T06:09:24;19.30;79.60
55711;DHT22;41612;51.994;5.880;2022-08-19T06:11:53;19.40;80.00
55711;DHT22;41612;51.994;5.880;2022-08-19T06:14:38;19.30;78.90
55711;DHT22;41612;51.994;5.880;2022-08-19T06:17:04;19.40;79.90
55711;DHT22;41612;51.994;5.880;2022-08-19T06:19:30;19.40;79.10
55711;DHT22;41612;51.994;5.880;2022-08-19T06:21:57;19.50;79.10
55711;DHT22;41612;51.994;5.880;2022-08-19T06:24:26;19.50;78.80
55711;DHT22;41612;51.994;5.880;2022-08-19T06:26:54;19.50;79.60
55711;DHT22;41612;51.994;5.880;2022-08-19T06:29:35;19.60;80.10
55711;DHT22;41612;51.994;5.880;2022-08-19T06:32:02;19.60;80.20
55711;DHT22;41612;51.994;5.880;2022-08-19T06:34:31;19.70;80.10
55711;DHT22;41612;51.994;5.880;2022-08-19T06:36:59;19.70;80.30
55711;DHT22;41612;51.994;5.880;2022-08-19T06:39:36;19.70;81.00
55711;DHT22;41612;51.994;5.880;2022-08-19T06:42:04;19.80;80.50
55711;DHT22;41612;51.994;5.880;2022-08-19T06:44:36;19.90;77.90
55711;DHT22;41612;51.994;5.880;2022-08-19T06:47:04;20.10;77.40
55711;DHT22;41612;51.994;5.880;2022-08-19T06:49:30;20.20;75.70
55711;DHT22;41612;51.994;5.880;2022-08-19T06:51:57;20.30;76.60
55711;DHT22;41612;51.994;5.880;2022-08-19T06:54:24;20.40;78.50
55711;DHT22;41612;51.994;5.880;2022-08-19T06:56:50;20.40;77.30
55711;DHT22;41612;51.994;5.880;2022-08-19T06:59:18;20.50;76.90
55711;DHT22;41612;51.994;5.880;2022-08-19T07:01:49;20.60;77.30
55711;DHT22;41612;51.994;5.880;2022-08-19T07:04:18;20.70;77.40
55711;DHT22;41612;51.994;5.880;2022-08-19T07:06:44;20.70;76.80
55711;DHT22;41612;51.994;5.880;2022-08-19T07:09:12;20.80;74.70
55711;DHT22;41612;51.994;5.880;2022-08-19T07:11:38;20.90;73.90
55711;DHT22;41612;51.994;5.880;2022-08-19T07:14:04;20.90;75.70
55711;DHT22;41612;51.994;5.880;2022-08-19T07:16:31;21.00;75.30
55711;DHT22;41612;51.994;5.880;2022-08-19T07:18:57;21.00;76.70
55711;DHT22;41612;51.994;5.880;2022-08-19T07:21:28;21.00;75.80
55711;DHT22;41612;51.994;5.880;2022-08-19T07:23:55;21.00;76.70
55711;DHT22;41612;51.994;5.880;2022-08-19T07:26:27;21.00;75.40
55711;DHT22;41612;51.994;5.880;2022-08-19T07:28:54;21.00;76.20
55711;DHT22;41612;51.994;5.880;2022-08-19T07:31:23;20.90;76.30
55711;DHT22;41612;51.994;5.880;2022-08-19T07:33:52;20.90;76.10
55711;DHT22;41612;51.994;5.880;2022-08-19T07:36:20;20.90;76.30
55711;DHT22;41612;51.994;5.880;2022-08-19T07:38:49;21.00;76.60
55711;DHT22;41612;51.994;5.880;2022-08-19T07:41:18;21.00;75.00
55711;DHT22;41612;51.994;5.880;2022-08-19T07:43:44;21.00;75.10
55711;DHT22;41612;51.994;5.880;2022-08-19T07:46:11;21.00;75.50
55711;DHT22;41612;51.994;5.880;2022-08-19T07:48:40;21.00;76.20
55711;DHT22;41612;51.994;5.880;2022-08-19T07:51:07;21.10;74.60
55711;DHT22;41612;51.994;5.880;2022-08-19T07:53:35;21.20;74.60
55711;DHT22;41612;51.994;5.880;2022-08-19T07:56:01;21.20;74.70
55711;DHT22;41612;51.994;5.880;2022-08-19T07:58:41;21.30;74.80
55711;DHT22;41612;51.994;5.880;2022-08-19T08:01:10;21.40;74.40
55711;DHT22;41612;51.994;5.880;2022-08-19T08:03:38;21.50;72.90
55711;DHT22;41612;51.994;5.880;2022-08-19T08:06:23;21.60;73.00
55711;DHT22;41612;51.994;5.880;2022-08-19T08:09:08;21.60;72.00
55711;DHT22;41612;51.994;5.880;2022-08-19T08:11:42;21.60;73.10
55711;DHT22;41612;51.994;5.880;2022-08-19T08:14:08;21.60;74.10
55711;DHT22;41612;51.994;5.880;2022-08-19T08:16:38;21.40;73.90
55711;DHT22;41612;51.994;5.880;2022-08-19T08:19:05;21.30;73.50
55711;DHT22;41612;51.994;5.880;2022-08-19T08:21:32;21.30;74.60
55711;DHT22;41612;51.994;5.880;2022-08-19T08:23:57;21.30;72.70
55711;DHT22;41612;51.994;5.880;2022-08-19T08:26:23;21.20;74.60
55711;DHT22;41612;51.994;5.880;2022-08-19T08:28:51;21.20;74.40
55711;DHT22;41612;51.994;5.880;2022-08-19T08:31:18;21.20;73.90
55711;DHT22;41612;51.994;5.880;2022-08-19T08:33:45;21.20;74.10
55711;DHT22;41612;51.994;5.880;2022-08-19T08:36:12;21.10;74.20
55711;DHT22;41612;51.994;5.880;2022-08-19T08:38:40;21.10;72.20
55711;DHT22;41612;51.994;5.880;2022-08-19T08:43:46;21.20;74.00
55711;DHT22;41612;51.994;5.880;2022-08-19T08:46:17;21.20;73.80
55711;DHT22;41612;51.994;5.880;2022-08-19T08:51:34;21.40;71.80
55711;DHT22;41612;51.994;5.880;2022-08-19T08:54:02;21.40;71.80
55711;DHT22;41612;51.994;5.880;2022-08-19T08:56:29;21.50;69.80
55711;DHT22;41612;51.994;5.880;2022-08-19T08:59:05;21.70;70.20
55711;DHT22;41612;51.994;5.880;2022-08-19T09:01:33;21.80;70.00
55711;DHT22;41612;51.994;5.880;2022-08-19T09:03:59;22.00;69.10
55711;DHT22;41612;51.994;5.880;2022-08-19T09:09:17;22.30;69.30
55711;DHT22;41612;51.994;5.880;2022-08-19T09:17:15;23.00;67.00
55711;DHT22;41612;51.994;5.880;2022-08-19T09:20:20;23.20;66.60
55711;DHT22;41612;51.994;5.880;2022-08-19T09:22:47;23.50;65.90
55711;DHT22;41612;51.994;5.880;2022-08-19T09:25:17;23.70;64.20
55711;DHT22;41612;51.994;5.880;2022-08-19T09:27:44;23.80;62.10
55711;DHT22;41612;51.994;5.880;2022-08-19T09:30:19;24.10;64.20
55711;DHT22;41612;51.994;5.880;2022-08-19T09:32:46;24.50;61.60
55711;DHT22;41612;51.994;5.880;2022-08-19T09:35:12;24.70;62.00
55711;DHT22;41612;51.994;5.880;2022-08-19T09:37:39;24.90;62.00
55711;DHT22;41612;51.994;5.880;2022-08-19T09:40:05;25.10;61.10
55711;DHT22;41612;51.994;5.880;2022-08-19T09:42:32;25.30;60.70
55711;DHT22;41612;51.994;5.880;2022-08-19T09:44:59;25.30;60.60
55711;DHT22;41612;51.994;5.880;2022-08-19T09:47:25;25.20;61.20
55711;DHT22;41612;51.994;5.880;2022-08-19T09:49:51;25.30;60.40
55711;DHT22;41612;51.994;5.880;2022-08-19T09:52:16;25.20;59.90
55711;DHT22;41612;51.994;5.880;2022-08-19T09:54:43;24.90;59.80
55711;DHT22;41612;51.994;5.880;2022-08-19T09:57:09;24.70;60.00
55711;DHT22;41612;51.994;5.880;2022-08-19T09:59:35;24.70;59.90
55711;DHT22;41612;51.994;5.880;2022-08-19T10:02:04;25.10;60.10
55711;DHT22;41612;51.994;5.880;2022-08-19T10:04:30;25.30;60.00
55711;DHT22;41612;51.994;5.880;2022-08-19T10:07:15;25.60;59.30
55711;DHT22;41612;51.994;5.880;2022-08-19T10:09:41;25.60;58.20
55711;DHT22;41612;51.994;5.880;2022-08-19T10:12:07;25.60;58.00
55711;DHT22;41612;51.994;5.880;2022-08-19T10:14:33;25.70;58.20
55711;DHT22;41612;51.994;5.880;2022-08-19T10:16:59;25.70;57.90
55711;DHT22;41612;51.994;5.880;2022-08-19T10:19:26;25.80;57.30
55711;DHT22;41612;51.994;5.880;2022-08-19T10:21:53;26.00;56.70
55711;DHT22;41612;51.994;5.880;2022-08-19T10:24:19;26.20;56.00
55711;DHT22;41612;51.994;5.880;2022-08-19T10:26:45;26.40;54.80
55711;DHT22;41612;51.994;5.880;2022-08-19T10:29:19;26.70;54.00
55711;DHT22;41612;51.994;5.880;2022-08-19T10:31:45;26.80;52.80
55711;DHT22;41612;51.994;5.880;2022-08-19T10:34:12;26.80;52.90
55711;DHT22;41612;51.994;5.880;2022-08-19T10:36:38;26.70;53.30
55711;DHT22;41612;51.994;5.880;2022-08-19T10:39:07;26.90;53.50
55711;DHT22;41612;51.994;5.880;2022-08-19T10:41:36;27.10;53.30
55711;DHT22;41612;51.994;5.880;2022-08-19T10:44:07;27.20;52.50
55711;DHT22;41612;51.994;5.880;2022-08-19T10:46:37;27.20;53.10
55711;DHT22;41612;51.994;5.880;2022-08-19T10:49:08;27.30;53.10
55711;DHT22;41612;51.994;5.880;2022-08-19T10:51:36;27.50;52.10
55711;DHT22;41612;51.994;5.880;2022-08-19T10:54:20;27.40;52.30
55711;DHT22;41612;51.994;5.880;2022-08-19T10:56:46;27.60;52.00
55711;DHT22;41612;51.994;5.880;2022-08-19T10:59:23;27.80;51.40
55711;DHT22;41612;51.994;5.880;2022-08-19T11:01:51;28.00;51.00
55711;DHT22;41612;51.994;5.880;2022-08-19T11:04:18;28.30;50.60
55711;DHT22;41612;51.994;5.880;2022-08-19T11:06:48;28.80;50.10
55711;DHT22;41612;51.994;5.880;2022-08-19T11:09:21;29.10;48.30
55711;DHT22;41612;51.994;5.880;2022-08-19T11:11:47;29.10;48.40
55711;DHT22;41612;51.994;5.880;2022-08-19T11:14:16;29.00;48.20
55711;DHT22;41612;51.994;5.880;2022-08-19T11:16:44;28.90;48.00
55711;DHT22;41612;51.994;5.880;2022-08-19T11:19:11;28.70;48.80
55711;DHT22;41612;51.994;5.880;2022-08-19T11:21:44;28.70;49.10
55711;DHT22;41612;51.994;5.880;2022-08-19T11:24:12;28.70;48.20
55711;DHT22;41612;51.994;5.880;2022-08-19T11:26:40;28.70;48.50
55711;DHT22;41612;51.994;5.880;2022-08-19T11:29:22;28.70;48.70
55711;DHT22;41612;51.994;5.880;2022-08-19T11:31:51;28.70;48.20
55711;DHT22;41612;51.994;5.880;2022-08-19T11:34:21;28.80;48.70
55711;DHT22;41612;51.994;5.880;2022-08-19T11:36:49;29.00;48.30
55711;DHT22;41612;51.994;5.880;2022-08-19T11:39:18;29.20;48.40
55711;DHT22;41612;51.994;5.880;2022-08-19T11:41:44;29.70;47.80
55711;DHT22;41612;51.994;5.880;2022-08-19T11:44:32;30.00;46.40
55711;DHT22;41612;51.994;5.880;2022-08-19T11:46:58;29.80;46.20
55711;DHT22;41612;51.994;5.880;2022-08-19T11:49:25;29.70;47.00
55711;DHT22;41612;51.994;5.880;2022-08-19T11:51:51;29.60;47.30
55711;DHT22;41612;51.994;5.880;2022-08-19T11:54:18;29.80;47.40
55711;DHT22;41612;51.994;5.880;2022-08-19T11:56:45;30.20;47.40
55711;DHT22;41612;51.994;5.880;2022-08-19T11:59:29;30.70;45.40
55711;DHT22;41612;51.994;5.880;2022-08-19T12:01:55;31.30;43.20
55711;DHT22;41612;51.994;5.880;2022-08-19T12:04:22;31.50;44.00
55711;DHT22;41612;51.994;5.880;2022-08-19T12:06:48;31.70;42.60
55711;DHT22;41612;51.994;5.880;2022-08-19T12:09:15;31.70;42.60
55711;DHT22;41612;51.994;5.880;2022-08-19T12:11:41;31.80;42.50
55711;DHT22;41612;51.994;5.880;2022-08-19T12:14:13;32.50;42.50
55711;DHT22;41612;51.994;5.880;2022-08-19T12:16:42;33.40;40.10
55711;DHT22;41612;51.994;5.880;2022-08-19T12:19:20;34.00;39.10
55711;DHT22;41612;51.994;5.880;2022-08-19T12:21:45;34.30;38.60
55711;DHT22;41612;51.994;5.880;2022-08-19T12:24:11;33.70;39.60
55711;DHT22;41612;51.994;5.880;2022-08-19T12:26:38;33.90;40.00
55711;DHT22;41612;51.994;5.880;2022-08-19T12:29:16;34.90;38.60
55711;DHT22;41612;51.994;5.880;2022-08-19T12:31:42;35.80;36.00
55711;DHT22;41612;51.994;5.880;2022-08-19T12:34:07;36.20;35.70
55711;DHT22;41612;51.994;5.880;2022-08-19T12:36:34;36.30;35.00
55711;DHT22;41612;51.994;5.880;2022-08-19T12:39:00;36.20;35.90
55711;DHT22;41612;51.994;5.880;2022-08-19T12:41:26;36.50;35.60
55711;DHT22;41612;51.994;5.880;2022-08-19T12:44:12;37.20;35.30
55711;DHT22;41612;51.994;5.880;2022-08-19T12:46:38;38.10;32.40
55711;DHT22;41612;51.994;5.880;2022-08-19T12:49:04;38.30;32.60
55711;DHT22;41612;51.994;5.880;2022-08-19T12:51:30;37.80;33.50
55711;DHT22;41612;51.994;5.880;2022-08-19T12:53:56;38.00;33.40
55711;DHT22;41612;51.994;5.880;2022-08-19T12:56:22;38.60;32.90
55711;DHT22;41612;51.994;5.880;2022-08-19T12:58:54;39.10;32.00
55711;DHT22;41612;51.994;5.880;2022-08-19T13:01:20;39.30;31.70
55711;DHT22;41612;51.994;5.880;2022-08-19T13:03:46;39.40;30.80
55711;DHT22;41612;51.994;5.880;2022-08-19T13:06:13;39.30;32.10
55711;DHT22;41612;51.994;5.880;2022-08-19T13:08:39;40.00;31.60
55711;DHT22;41612;51.994;5.880;2022-08-19T13:11:10;40.70;30.80
55711;DHT22;41612;51.994;5.880;2022-08-19T13:13:50;41.10;28.60
55711;DHT22;41612;51.994;5.880;2022-08-19T13:16:17;40.50;29.70
55711;DHT22;41612;51.994;5.880;2022-08-19T13:18:45;40.40;30.50
55711;DHT22;41612;51.994;5.880;2022-08-19T13:21:12;39.70;29.50
55711;DHT22;41612;51.994;5.880;2022-08-19T13:23:38;37.80;32.30
55711;DHT22;41612;51.994;5.880;2022-08-19T13:26:06;36.20;34.70
55711;DHT22;41612;51.994;5.880;2022-08-19T13:28:32;36.10;34.50
55711;DHT22;41612;51.994;5.880;2022-08-19T13:31:19;37.30;34.30
55711;DHT22;41612;51.994;5.880;2022-08-19T13:34:04;38.90;31.90
55711;DHT22;41612;51.994;5.880;2022-08-19T13:36:32;39.60;31.80
55711;DHT22;41612;51.994;5.880;2022-08-19T13:38:57;39.80;32.70
55711;DHT22;41612;51.994;5.880;2022-08-19T13:41:24;39.80;30.20
55711;DHT22;41612;51.994;5.880;2022-08-19T13:43:53;39.30;31.10
55711;DHT22;41612;51.994;5.880;2022-08-19T13:46:22;37.60;31.90
55711;DHT22;41612;51.994;5.880;2022-08-19T13:48:48;35.70;37.20
55711;DHT22;41612;51.994;5.880;2022-08-19T13:51:15;34.30;38.30
55711;DHT22;41612;51.994;5.880;2022-08-19T13:53:43;33.70;39.40
55711;DHT22;41612;51.994;5.880;2022-08-19T13:56:13;33.80;39.20
55711;DHT22;41612;51.994;5.880;2022-08-19T13:58:39;34.40;37.90
55711;DHT22;41612;51.994;5.880;2022-08-19T14:01:05;34.50;38.00
55711;DHT22;41612;51.994;5.880;2022-08-19T14:03:32;34.50;41.20
55711;DHT22;41612;51.994;5.880;2022-08-19T14:05:58;35.30;38.60
55711;DHT22;41612;51.994;5.880;2022-08-19T14:08:25;36.20;36.50
55711;DHT22;41612;51.994;5.880;2022-08-19T14:10:56;36.20;35.50
55711;DHT22;41612;51.994;5.880;2022-08-19T14:13:23;34.80;37.90
55711;DHT22;41612;51.994;5.880;2022-08-19T14:16:01;33.50;39.80
55711;DHT22;41612;51.994;5.880;2022-08-19T14:18:32;32.40;44.30
55711;DHT22;41612;51.994;5.880;2022-08-19T14:20:58;31.70;44.10
55711;DHT22;41612;51.994;5.880;2022-08-19T14:23:23;31.00;46.50
55711;DHT22;41612;51.994;5.880;2022-08-19T14:25:49;30.60;48.60
55711;DHT22;41612;51.994;5.880;2022-08-19T14:28:15;30.70;49.80
55711;DHT22;41612;51.994;5.880;2022-08-19T14:30:48;30.30;50.00
55711;DHT22;41612;51.994;5.880;2022-08-19T14:33:14;30.40;48.20
55711;DHT22;41612;51.994;5.880;2022-08-19T14:35:39;30.70;50.20
55711;DHT22;41612;51.994;5.880;2022-08-19T14:38:16;30.40;50.50
55711;DHT22;41612;51.994;5.880;2022-08-19T14:40:42;30.10;50.40
55711;DHT22;41612;51.994;5.880;2022-08-19T14:43:08;29.60;51.00
55711;DHT22;41612;51.994;5.880;2022-08-19T14:45:46;29.30;53.50
55711;DHT22;41612;51.994;5.880;2022-08-19T14:48:12;28.80;51.90
55711;DHT22;41612;51.994;5.880;2022-08-19T14:50:38;28.50;55.30
55711;DHT22;41612;51.994;5.880;2022-08-19T14:53:06;28.20;53.50
55711;DHT22;41612;51.994;5.880;2022-08-19T14:55:33;27.90;54.60
55711;DHT22;41612;51.994;5.880;2022-08-19T14:57:59;27.80;55.10
55711;DHT22;41612;51.994;5.880;2022-08-19T15:00:31;27.80;57.70
55711;DHT22;41612;51.994;5.880;2022-08-19T15:02:57;27.80;56.50
55711;DHT22;41612;51.994;5.880;2022-08-19T15:05:27;27.70;58.30
55711;DHT22;41612;51.994;5.880;2022-08-19T15:07:53;27.50;56.80
55711;DHT22;41612;51.994;5.880;2022-08-19T15:10:20;27.20;55.50
55711;DHT22;41612;51.994;5.880;2022-08-19T15:12:49;27.00;60.10
55711;DHT22;41612;51.994;5.880;2022-08-19T15:15:20;27.00;60.50
55711;DHT22;41612;51.994;5.880;2022-08-19T15:17:48;27.10;60.80
55711;DHT22;41612;51.994;5.880;2022-08-19T15:20:19;27.10;62.20
55711;DHT22;41612;51.994;5.880;2022-08-19T15:22:45;27.20;62.00
55711;DHT22;41612;51.994;5.880;2022-08-19T15:25:13;27.30;61.50
55711;DHT22;41612;51.994;5.880;2022-08-19T15:27:39;27.40;61.60
55711;DHT22;41612;51.994;5.880;2022-08-19T15:30:18;27.50;61.40
55711;DHT22;41612;51.994;5.880;2022-08-19T15:32:46;27.50;61.10
55711;DHT22;41612;51.994;5.880;2022-08-19T15:35:11;27.40;61.40
55711;DHT22;41612;51.994;5.880;2022-08-19T15:37:37;27.40;61.40
55711;DHT22;41612;51.994;5.880;2022-08-19T15:40:05;27.30;61.40
55711;DHT22;41612;51.994;5.880;2022-08-19T15:42:37;27.30;61.50
55711;DHT22;41612;51.994;5.880;2022-08-19T15:45:06;27.30;61.50
55711;DHT22;41612;51.994;5.880;2022-08-19T15:47:32;27.40;61.10
55711;DHT22;41612;51.994;5.880;2022-08-19T15:49:58;27.50;61.00
55711;DHT22;41612;51.994;5.880;2022-08-19T15:52:24;27.60;60.50
55711;DHT22;41612;51.994;5.880;2022-08-19T15:54:49;27.70;60.40